M I D A S
Marine Information and Data Acquisition System
Tripno 879 of the Zeeleeuw from 2005-04-07 07:15:14 to 2005-04-07 10:26:14
Back to CruiseResearch ActivitiesStationsMapUnderway DataData graphs

EquipmentUnitsComments
TimeDGPSUTC
LatitudeDGPSDM.mWGS84
LongitudeDGPSDM.mWGS84
SpeedMeteo Stationm/sRelative wind speed
DirectionMeteo StationdegRelative wind direction
TemperatureMeteo Stationdeg CelciusAir temperature
PressureMeteo StationPaAtmospheric pressure
HumidityMeteo Station%Relative humidity
Missing or incorrect values are displayed as -999
Metereological data collected by the RV Zeeleeuw from 2005-04-07 07:18:36 to 2005-04-07 10:36:32
                                                                                    Next 1000 lines
Time Latitude Longitude Speed Direction Temperature Pressure Humidity
2005-04-07 07:18:46 51°13.594 2°56.098 8.7 118 8.4 100040 75
2005-04-07 07:18:51 51°13.596 2°56.094 10 124 8.4 100040 75
2005-04-07 07:18:56 51°13.598 2°56.09 7.2 123 8.4 100050 75
2005-04-07 07:19:02 51°13.599 2°56.083 7.5 41 8.4 100050 75
2005-04-07 07:19:07 51°13.601 2°56.078 9.8 144 8.4 100040 75
2005-04-07 07:19:12 51°13.603 2°56.072 8.3 133 8.4 100040 75
2005-04-07 07:19:16 51°13.605 2°56.067 7.2 129 8.4 100050 75
2005-04-07 07:19:22 51°13.607 2°56.058 6.9 129 8.4 100050 75
2005-04-07 07:19:27 51°13.609 2°56.052 8.3 142 8.4 100040 75
2005-04-07 07:19:32 51°13.611 2°56.044 7.7 123 8.4 100040 75
2005-04-07 07:19:37 51°13.614 2°56.036 7.7 131 8.4 100050 75
2005-04-07 07:19:42 51°13.615 2°56.028 11.1 139 8.4 100050 75
2005-04-07 07:19:47 51°13.617 2°56.022 10.1 34 8.4 100040 75
2005-04-07 07:19:51 51°13.618 2°56.017 7.6 168 8.4 100040 75
2005-04-07 07:19:57 51°13.619 2°56.014 7.6 136 8.4 100040 75
2005-04-07 07:20:02 51°13.62 2°56.013 8.6 140 8.4 100040 75
2005-04-07 07:20:07 51°13.62 2°56.014 7 156 8.3 100050 75
2005-04-07 07:20:11 51°13.62 2°56.016 5.3 157 8.3 100050 75
2005-04-07 07:20:17 51°13.619 2°56.021 6.5 132 8.3 100040 75
2005-04-07 07:20:22 51°13.618 2°56.024 6.1 96 8.3 100040 75
2005-04-07 07:20:27 51°13.617 2°56.026 6.1 98 8.4 100040 75
2005-04-07 07:20:32 51°13.617 2°56.027 7.6 41 8.4 100040 75
2005-04-07 07:20:36 51°13.618 2°56.027 4.9 147 8.3 100050 75
2005-04-07 07:20:42 51°13.619 2°56.025 4.9 99 8.3 100050 75
2005-04-07 07:20:46 51°13.62 2°56.023 7.7 113 8.4 100050 75
2005-04-07 07:20:52 51°13.621 2°56.02 8.4 125 8.4 100050 75
2005-04-07 07:20:56 51°13.623 2°56.016 7.8 165 8.4 100040 75
2005-04-07 07:21:02 51°13.625 2°56.011 9.7 124 8.4 100040 75
2005-04-07 07:21:07 51°13.627 2°56.005 9.2 108 8.4 100050 75
2005-04-07 07:21:12 51°13.629 2°55.999 7.7 139 8.4 100050 75
2005-04-07 07:21:16 51°13.631 2°55.993 8.6 226 8.4 100050 75
2005-04-07 07:21:22 51°13.634 2°55.985 7.7 111 8.4 100050 75
2005-04-07 07:21:27 51°13.636 2°55.978 5.9 139 8.4 100040 75
2005-04-07 07:21:32 51°13.639 2°55.971 8.6 128 8.4 100040 75
2005-04-07 07:21:36 51°13.642 2°55.963 11.2 150 8.4 100040 75
2005-04-07 07:21:42 51°13.646 2°55.954 8 143 8.4 100040 75
2005-04-07 07:21:46 51°13.649 2°55.947 4.8 132 8.4 100050 75
2005-04-07 07:21:52 51°13.652 2°55.937 7.3 148 8.4 100050 75
2005-04-07 07:21:57 51°13.656 2°55.929 9.7 143 8.4 100030 75
2005-04-07 07:22:02 51°13.659 2°55.92 4.6 170 8.4 100030 75
2005-04-07 07:22:06 51°13.662 2°55.911 4.7 170 8.4 100030 75
2005-04-07 07:22:12 51°13.666 2°55.902 6 171 8.4 100030 75
2005-04-07 07:22:17 51°13.669 2°55.892 6.8 134 8.4 100040 75
2005-04-07 07:22:22 51°13.673 2°55.882 7.8 116 8.4 100040 75
2005-04-07 07:22:27 51°13.675 2°55.873 7.9 148 8.4 100040 75
2005-04-07 07:22:32 51°13.679 2°55.863 12.6 146 8.4 100040 75
2005-04-07 07:22:37 51°13.682 2°55.852 10.8 139 8.4 100050 75
2005-04-07 07:22:42 51°13.684 2°55.842 10.9 136 8.4 100050 75
2005-04-07 07:22:46 51°13.687 2°55.833 8.3 227 8.4 100050 75
2005-04-07 07:22:52 51°13.689 2°55.821 6.9 162 8.4 100050 75
2005-04-07 07:22:56 51°13.69 2°55.813 5.6 153 8.4 100040 75
2005-04-07 07:23:02 51°13.692 2°55.8 11.5 163 8.4 100040 75
2005-04-07 07:23:06 51°13.693 2°55.792 9 141 8.4 100040 75
2005-04-07 07:23:12 51°13.694 2°55.781 11.4 226 8.4 100040 75
2005-04-07 07:23:17 51°13.695 2°55.772 6.9 141 8.4 100040 75
2005-04-07 07:23:22 51°13.695 2°55.762 7.5 152 8.4 100040 75
2005-04-07 07:23:27 51°13.695 2°55.754 6.4 131 8.4 100040 75
2005-04-07 07:23:32 51°13.696 2°55.747 6.2 176 8.4 100040 75
2005-04-07 07:23:36 51°13.696 2°55.743 5.2 167 8.4 100040 75
2005-04-07 07:23:42 51°13.696 2°55.74 4.1 176 8.4 100040 75
2005-04-07 07:23:47 51°13.697 2°55.74 4.6 201 8.4 100030 75
2005-04-07 07:23:52 51°13.698 2°55.742 2.9 202 8.4 100030 75
2005-04-07 07:23:56 51°13.699 2°55.742 2.2 120 8.4 100040 75
2005-04-07 07:24:02 51°13.7 2°55.743 3 169 8.4 100040 75
2005-04-07 07:24:07 51°13.7 2°55.742 3.7 196 8.4 100050 75
2005-04-07 07:24:12 51°13.699 2°55.741 6.4 218 8.4 100050 75
2005-04-07 07:24:16 51°13.698 2°55.739 7.5 203 8.4 100050 75
2005-04-07 07:24:22 51°13.697 2°55.737 5.9 228 8.4 100050 75
2005-04-07 07:24:27 51°13.695 2°55.734 5.7 216 8.4 100050 76
2005-04-07 07:24:32 51°13.693 2°55.732 6.9 251 8.4 100050 76
2005-04-07 07:24:36 51°13.692 2°55.73 6.8 220 8.4 100050 75
2005-04-07 07:24:42 51°13.691 2°55.729 7.4 221 8.4 100050 75
2005-04-07 07:24:47 51°13.692 2°55.729 4.7 238 8.4 100050 75
2005-04-07 07:24:52 51°13.694 2°55.73 6.6 235 8.4 100050 75
2005-04-07 07:24:56 51°13.696 2°55.73 4.8 252 8.4 100060 75
2005-04-07 07:25:02 51°13.7 2°55.729 6.5 231 8.4 100060 75
2005-04-07 07:25:07 51°13.703 2°55.728 4.8 306 8.4 100050 75
2005-04-07 07:25:11 51°13.707 2°55.726 2.9 280 8.4 100050 75
2005-04-07 07:25:16 51°13.711 2°55.723 1.9 270 8.4 100050 75
2005-04-07 07:25:21 51°13.717 2°55.719 4.1 300 8.4 100050 75
2005-04-07 07:25:26 51°13.722 2°55.714 3.2 292 8.4 100050 75
2005-04-07 07:25:31 51°13.728 2°55.709 2.6 288 8.4 100050 75
2005-04-07 07:25:36 51°13.735 2°55.703 2.8 296 8.4 100050 75
2005-04-07 07:25:41 51°13.742 2°55.697 3.8 293 8.4 100050 75
2005-04-07 07:25:46 51°13.749 2°55.691 5 309 8.4 100040 75
2005-04-07 07:25:52 51°13.757 2°55.685 4.8 254 8.4 100040 75
2005-04-07 07:25:56 51°13.763 2°55.68 3.3 334 8.4 100040 75
2005-04-07 07:26:01 51°13.772 2°55.673 4 279 8.4 100040 75
2005-04-07 07:26:06 51°13.78 2°55.667 4.3 300 8.4 100050 75
2005-04-07 07:26:12 51°13.788 2°55.659 4.8 293 8.4 100050 75
2005-04-07 07:26:16 51°13.795 2°55.654 5.5 296 8.4 100050 75
2005-04-07 07:26:21 51°13.804 2°55.647 7.6 295 8.4 100050 75
2005-04-07 07:26:26 51°13.813 2°55.64 7.3 266 8.4 100040 75
2005-04-07 07:26:31 51°13.821 2°55.634 4 253 8.4 100040 75
2005-04-07 07:26:36 51°13.83 2°55.627 5.9 277 8.4 100040 75
2005-04-07 07:26:40 51°13.836 2°55.622 7.5 317 8.4 100040 75
2005-04-07 07:26:46 51°13.848 2°55.614 6.6 327 8.4 100040 75
2005-04-07 07:26:52 51°13.858 2°55.607 7.1 304 8.4 100040 75
2005-04-07 07:26:56 51°13.865 2°55.601 7.5 280 8.4 100040 75
2005-04-07 07:27:00 51°13.873 2°55.596 11.1 272 8.4 100040 75
2005-04-07 07:27:06 51°13.884 2°55.588 6.5 305 8.5 100040 75
2005-04-07 07:27:11 51°13.894 2°55.581 5.2 296 8.5 100040 75
2005-04-07 07:27:16 51°13.903 2°55.574 7.5 241 8.5 100040 75
2005-04-07 07:27:20 51°13.91 2°55.569 3.6 298 8.5 100040 75
2005-04-07 07:27:26 51°13.921 2°55.561 6 336 8.5 100040 75
2005-04-07 07:27:30 51°13.93 2°55.555 5.3 26 8.5 100040 75
2005-04-07 07:27:36 51°13.941 2°55.547 5.1 28 8.5 100040 75
2005-04-07 07:27:42 51°13.952 2°55.539 3.1 230 8.5 100040 75
2005-04-07 07:27:46 51°13.959 2°55.534 5 303 8.5 100040 75
2005-04-07 07:27:50 51°13.968 2°55.528 4.9 289 8.5 100040 75
2005-04-07 07:27:56 51°13.979 2°55.52 4.6 233 8.5 100030 75
2005-04-07 07:27:59 51°13.984 2°55.516 3.8 250 8.5 100030 75
2005-04-07 07:28:06 51°13.998 2°55.506 3.1 258 8.5 100030 75
2005-04-07 07:28:12 51°14.009 2°55.498 3.9 268 8.5 100030 75
2005-04-07 07:28:16 51°14.016 2°55.493 2.1 262 8.5 100030 75
2005-04-07 07:28:20 51°14.025 2°55.487 3.3 279 8.5 100030 75
2005-04-07 07:28:26 51°14.036 2°55.479 1.8 263 8.5 100040 75
2005-04-07 07:28:30 51°14.044 2°55.473 4.8 332 8.5 100040 75
2005-04-07 07:28:36 51°14.054 2°55.466 3.5 280 8.5 100040 75
2005-04-07 07:28:41 51°14.065 2°55.459 6.6 282 8.5 100040 75
2005-04-07 07:28:46 51°14.074 2°55.452 4.2 225 8.5 100030 75
2005-04-07 07:28:50 51°14.082 2°55.446 6.4 262 8.5 100030 75
2005-04-07 07:28:56 51°14.093 2°55.438 4.9 266 8.5 100030 75
2005-04-07 07:29:02 51°14.104 2°55.43 3.1 312 8.5 100030 75
2005-04-07 07:29:06 51°14.112 2°55.423 4.1 258 8.5 100040 75
2005-04-07 07:29:11 51°14.123 2°55.416 3.8 271 8.5 100040 75
2005-04-07 07:29:16 51°14.133 2°55.408 2.1 349 8.5 100040 75
2005-04-07 07:29:22 51°14.146 2°55.397 7.6 315 8.5 100040 75
2005-04-07 07:29:26 51°14.156 2°55.389 7.5 298 8.5 100040 74
2005-04-07 07:29:30 51°14.164 2°55.382 6.7 313 8.5 100040 74
2005-04-07 07:29:36 51°14.176 2°55.371 7.8 346 8.5 100030 74
2005-04-07 07:29:41 51°14.187 2°55.36 15.6 316 8.5 100030 74
2005-04-07 07:29:46 51°14.197 2°55.35 10 314 8.5 100030 74
2005-04-07 07:29:52 51°14.209 2°55.336 13.3 292 8.5 100030 74
2005-04-07 07:29:56 51°14.218 2°55.325 11.9 291 8.5 100030 74
2005-04-07 07:30:02 51°14.228 2°55.31 7.5 301 8.5 100030 74
2005-04-07 07:30:06 51°14.237 2°55.299 10.6 314 8.5 100020 74
2005-04-07 07:30:10 51°14.244 2°55.287 11.2 301 8.5 100020 74
2005-04-07 07:30:15 51°14.253 2°55.273 12.6 315 8.5 100020 74
2005-04-07 07:30:21 51°14.264 2°55.256 13.8 310 8.5 100020 74
2005-04-07 07:30:26 51°14.271 2°55.243 14.4 306 8.5 100030 74
2005-04-07 07:30:31 51°14.281 2°55.227 14.3 312 8.5 100030 74
2005-04-07 07:30:36 51°14.288 2°55.213 13.7 312 8.5 100020 74
2005-04-07 07:30:41 51°14.297 2°55.196 13.1 303 8.5 100020 74
2005-04-07 07:30:46 51°14.305 2°55.181 16.3 298 8.5 100020 74
2005-04-07 07:30:52 51°14.315 2°55.164 15.9 310 8.5 100020 74
2005-04-07 07:30:56 51°14.322 2°55.151 13.2 294 8.5 100010 74
2005-04-07 07:31:01 51°14.332 2°55.134 10.7 296 8.5 100010 74
2005-04-07 07:31:06 51°14.341 2°55.118 12.5 299 8.5 100010 75
2005-04-07 07:31:10 51°14.348 2°55.106 10.8 320 8.5 100010 75
2005-04-07 07:31:16 51°14.359 2°55.089 12.3 306 8.5 100010 75
2005-04-07 07:31:21 51°14.37 2°55.072 14.3 290 8.5 100010 75
2005-04-07 07:31:26 51°14.379 2°55.059 15.2 284 8.5 100010 75
2005-04-07 07:31:32 51°14.393 2°55.044 16.7 274 8.5 100010 75
2005-04-07 07:31:36 51°14.403 2°55.033 14.6 275 8.5 100020 75
2005-04-07 07:31:42 51°14.418 2°55.02 12.1 276 8.5 100020 75
2005-04-07 07:31:46 51°14.43 2°55.011 14.6 272 8.5 100010 75
2005-04-07 07:31:52 51°14.446 2°55 13.5 265 8.5 100010 75
2005-04-07 07:31:56 51°14.457 2°54.993 14.1 270 8.4 100000 75
2005-04-07 07:32:02 51°14.474 2°54.982 16.2 267 8.4 100000 75
2005-04-07 07:32:06 51°14.486 2°54.975 15.2 266 8.4 100000 76
2005-04-07 07:32:10 51°14.499 2°54.967 13.5 272 8.4 100000 76
2005-04-07 07:32:16 51°14.515 2°54.958 13.3 265 8.4 100020 75
2005-04-07 07:32:22 51°14.533 2°54.948 13.2 268 8.4 100020 75
2005-04-07 07:32:26 51°14.545 2°54.941 12.1 265 8.4 100010 76
2005-04-07 07:32:31 51°14.561 2°54.933 11.1 266 8.4 100010 76
2005-04-07 07:32:36 51°14.576 2°54.925 9.1 270 8.4 100020 76
2005-04-07 07:32:42 51°14.594 2°54.914 9 260 8.4 100020 76
2005-04-07 07:32:46 51°14.607 2°54.906 10.3 264 8.4 100020 76
2005-04-07 07:32:51 51°14.621 2°54.9 9 263 8.4 100020 76
2005-04-07 07:32:56 51°14.637 2°54.891 11.8 280 8.4 100000 76
2005-04-07 07:33:02 51°14.655 2°54.882 12.3 283 8.4 100000 76
2005-04-07 07:33:06 51°14.668 2°54.874 12.5 276 8.4 100000 76
2005-04-07 07:33:11 51°14.684 2°54.866 12.3 280 8.4 100000 76
2005-04-07 07:33:16 51°14.698 2°54.86 15.1 279 8.4 100010 77
2005-04-07 07:33:22 51°14.716 2°54.85 13 270 8.4 100010 77
2005-04-07 07:33:26 51°14.73 2°54.844 14 265 8.4 100000 77
2005-04-07 07:33:31 51°14.746 2°54.839 12.3 265 8.4 100000 77
2005-04-07 07:33:36 51°14.76 2°54.834 8.9 262 8.4 99990 77
2005-04-07 07:33:42 51°14.779 2°54.829 14 271 8.4 99990 77
2005-04-07 07:33:46 51°14.791 2°54.826 12.4 264 8.4 99990 77
2005-04-07 07:33:51 51°14.809 2°54.822 6.8 260 8.4 99990 77
2005-04-07 07:33:56 51°14.823 2°54.818 9.9 265 8.4 100000 77
2005-04-07 07:34:00 51°14.836 2°54.815 8.8 248 8.4 100000 77
2005-04-07 07:34:06 51°14.856 2°54.811 8.4 243 8.4 100010 77
2005-04-07 07:34:11 51°14.872 2°54.808 6.9 262 8.4 100010 77
2005-04-07 07:34:16 51°14.889 2°54.805 7 257 8.4 100010 77
2005-04-07 07:34:21 51°14.903 2°54.802 7.2 258 8.4 100010 77
2005-04-07 07:34:26 51°14.92 2°54.799 9.4 252 8.4 100000 77
2005-04-07 07:34:30 51°14.933 2°54.797 8.6 261 8.4 100000 77
2005-04-07 07:34:36 51°14.951 2°54.793 8.4 259 8.4 100010 77
2005-04-07 07:34:41 51°14.968 2°54.789 11.5 266 8.4 100010 77
2005-04-07 07:34:46 51°14.984 2°54.787 8.9 261 8.4 100000 77
2005-04-07 07:34:51 51°15 2°54.784 9.1 257 8.4 100000 77
2005-04-07 07:34:56 51°15.014 2°54.783 8.9 254 8.4 100010 77
2005-04-07 07:35:02 51°15.033 2°54.782 10 250 8.4 100010 77
2005-04-07 07:35:06 51°15.048 2°54.781 8.5 256 8.4 100000 77
2005-04-07 07:35:12 51°15.065 2°54.78 7.2 256 8.4 100000 77
2005-04-07 07:35:16 51°15.078 2°54.782 13.1 243 8.4 100010 77
2005-04-07 07:35:19 51°15.089 2°54.78 9.5 262 8.4 100010 77
2005-04-07 07:35:26 51°15.111 2°54.783 10.7 248 8.4 100010 77
2005-04-07 07:35:31 51°15.127 2°54.781 6.4 258 8.4 100010 77
2005-04-07 07:35:36 51°15.141 2°54.782 6.5 256 8.4 100000 76
2005-04-07 07:35:42 51°15.16 2°54.782 10 262 8.4 100000 76
2005-04-07 07:35:46 51°15.174 2°54.782 9.7 251 8.4 100010 77
2005-04-07 07:35:51 51°15.19 2°54.784 10.5 250 8.4 100010 77
2005-04-07 07:35:56 51°15.204 2°54.785 12.2 239 8.4 100000 77
2005-04-07 07:36:01 51°15.221 2°54.79 11.8 243 8.4 100000 77
2005-04-07 07:36:06 51°15.235 2°54.793 11.4 239 8.4 100000 77
2005-04-07 07:36:11 51°15.252 2°54.798 11.7 238 8.4 100000 77
2005-04-07 07:36:16 51°15.266 2°54.802 10.6 238 8.4 100000 77
2005-04-07 07:36:21 51°15.283 2°54.807 10.8 239 8.4 100000 77
2005-04-07 07:36:26 51°15.299 2°54.812 9.3 250 8.4 100010 76
2005-04-07 07:36:32 51°15.316 2°54.817 10.2 239 8.4 100010 76
2005-04-07 07:36:36 51°15.328 2°54.821 13.3 233 8.4 100000 76
2005-04-07 07:36:42 51°15.347 2°54.826 9.3 241 8.4 100000 76
2005-04-07 07:36:46 51°15.361 2°54.831 6 254 8.4 100020 76
2005-04-07 07:36:52 51°15.378 2°54.838 6.7 256 8.4 100020 76
2005-04-07 07:36:56 51°15.393 2°54.842 9 234 8.4 100010 76
2005-04-07 07:37:01 51°15.408 2°54.848 8.1 251 8.4 100010 76
2005-04-07 07:37:06 51°15.423 2°54.854 8.8 227 8.4 100010 76
2005-04-07 07:37:12 51°15.44 2°54.861 5.9 251 8.4 100010 76
2005-04-07 07:37:16 51°15.452 2°54.866 9.7 236 8.4 100000 77
2005-04-07 07:37:22 51°15.47 2°54.873 9.3 231 8.4 100000 77
2005-04-07 07:37:26 51°15.484 2°54.88 11.6 233 8.4 100010 77
2005-04-07 07:37:30 51°15.496 2°54.887 9.9 250 8.4 100010 77
2005-04-07 07:37:35 51°15.512 2°54.893 8.7 236 8.4 100010 77
2005-04-07 07:37:41 51°15.53 2°54.904 7.4 238 8.4 100010 77
2005-04-07 07:37:46 51°15.545 2°54.913 7.9 248 8.4 100010 77
2005-04-07 07:37:51 51°15.559 2°54.923 8 211 8.4 100010 77
2005-04-07 07:37:56 51°15.572 2°54.933 7.4 234 8.4 100000 77
2005-04-07 07:38:01 51°15.587 2°54.945 7 221 8.4 100000 77
2005-04-07 07:38:06 51°15.601 2°54.958 9.4 227 8.4 100000 77
2005-04-07 07:38:11 51°15.614 2°54.971 8.6 235 8.4 100000 77
2005-04-07 07:38:16 51°15.626 2°54.981 6.9 221 8.4 100000 77
2005-04-07 07:38:21 51°15.639 2°54.995 11 221 8.4 100000 77
2005-04-07 07:38:26 51°15.652 2°55.008 8.7 215 8.4 100010 77
2005-04-07 07:38:30 51°15.664 2°55.02 8.9 215 8.4 100010 77
2005-04-07 07:38:35 51°15.676 2°55.036 7.3 199 8.4 100010 77
2005-04-07 07:38:42 51°15.69 2°55.058 4.6 201 8.4 100010 77
2005-04-07 07:38:46 51°15.699 2°55.07 7.3 187 8.4 100020 77
2005-04-07 07:38:51 51°15.711 2°55.088 6.4 185 8.4 100020 77
2005-04-07 07:38:56 51°15.722 2°55.106 6.5 208 8.4 100010 77
2005-04-07 07:39:01 51°15.732 2°55.124 6.1 197 8.4 100010 77
2005-04-07 07:39:06 51°15.743 2°55.141 9.4 210 8.5 100010 77
2005-04-07 07:39:12 51°15.754 2°55.161 6.6 192 8.5 100010 77
2005-04-07 07:39:16 51°15.762 2°55.176 6.1 208 8.5 100020 77
2005-04-07 07:39:22 51°15.775 2°55.197 5 179 8.5 100020 77
2005-04-07 07:39:26 51°15.783 2°55.216 4.2 183 8.6 100020 77
2005-04-07 07:39:32 51°15.795 2°55.234 4.1 195 8.6 100020 77
2005-04-07 07:39:36 51°15.802 2°55.25 6.5 173 8.6 100020 77
2005-04-07 07:39:42 51°15.814 2°55.273 4.1 185 8.6 100020 77
2005-04-07 07:39:46 51°15.823 2°55.287 4.4 190 8.7 100020 77
2005-04-07 07:39:51 51°15.834 2°55.309 5.9 199 8.7 100020 77
2005-04-07 07:39:56 51°15.846 2°55.327 3.7 169 8.7 100010 76
2005-04-07 07:40:02 51°15.858 2°55.349 5.5 204 8.7 100010 76
2005-04-07 07:40:06 51°15.868 2°55.367 5.7 188 8.8 100010 77
2005-04-07 07:40:11 51°15.879 2°55.389 6.7 196 8.8 100010 77
2005-04-07 07:40:16 51°15.888 2°55.407 6 166 8.8 100010 77
2005-04-07 07:40:21 51°15.899 2°55.431 5 192 8.8 100010 77
2005-04-07 07:40:26 51°15.908 2°55.451 5.8 170 8.8 100010 76
2005-04-07 07:40:32 51°15.918 2°55.48 5.7 179 8.8 100010 76
2005-04-07 07:40:36 51°15.928 2°55.501 6.7 171 8.9 100010 76
2005-04-07 07:40:40 51°15.932 2°55.518 4.5 180 8.9 100010 76
2005-04-07 07:40:46 51°15.945 2°55.549 6.1 177 9 100010 76
2005-04-07 07:40:50 51°15.952 2°55.568 4.8 158 9 100010 76
2005-04-07 07:40:55 51°15.962 2°55.59 8 149 9 100010 76
2005-04-07 07:41:01 51°15.972 2°55.62 7.9 173 9 100010 76
2005-04-07 07:41:06 51°15.981 2°55.645 8.2 174 9 100010 75
2005-04-07 07:41:11 51°15.989 2°55.666 10.5 167 9 100010 75
2005-04-07 07:41:16 51°15.998 2°55.691 10.6 162 9 100010 75
2005-04-07 07:41:20 51°16.007 2°55.713 9.8 164 9 100010 75
2005-04-07 07:41:26 51°16.016 2°55.743 8.1 173 8.9 100010 74
2005-04-07 07:41:31 51°16.026 2°55.767 9.5 167 8.9 100010 74
2005-04-07 07:41:36 51°16.034 2°55.789 8.9 166 8.8 100020 74
2005-04-07 07:41:40 51°16.04 2°55.809 8.5 177 8.8 100020 74
2005-04-07 07:41:46 51°16.053 2°55.842 7.7 170 8.8 100010 73
2005-04-07 07:41:51 51°16.062 2°55.867 6.6 164 8.8 100010 73
2005-04-07 07:41:56 51°16.071 2°55.893 9.6 170 8.8 100010 73
2005-04-07 07:42:00 51°16.077 2°55.91 8.4 171 8.8 100010 73
2005-04-07 07:42:06 51°16.087 2°55.944 10.1 164 8.7 100020 74
2005-04-07 07:42:10 51°16.095 2°55.965 8.7 172 8.7 100020 74
2005-04-07 07:42:15 51°16.104 2°55.99 9.3 162 8.7 100010 74
2005-04-07 07:42:21 51°16.115 2°56.019 9.7 160 8.7 100010 74
2005-04-07 07:42:26 51°16.124 2°56.043 8.1 176 8.7 100010 73
2005-04-07 07:42:31 51°16.134 2°56.067 7.2 182 8.7 100010 73
2005-04-07 07:42:36 51°16.143 2°56.09 8.4 179 8.7 100020 73
2005-04-07 07:42:41 51°16.155 2°56.117 6 180 8.7 100020 73
2005-04-07 07:42:46 51°16.164 2°56.141 6.8 176 8.6 100020 73
2005-04-07 07:42:52 51°16.173 2°56.167 6.6 170 8.6 100020 73
2005-04-07 07:42:56 51°16.181 2°56.191 6.2 171 8.6 100010 73
2005-04-07 07:43:00 51°16.189 2°56.207 6.9 178 8.6 100010 73
2005-04-07 07:43:06 51°16.2 2°56.236 8.6 183 8.6 100010 73
2005-04-07 07:43:12 51°16.212 2°56.263 5.8 182 8.6 100010 73
2005-04-07 07:43:16 51°16.22 2°56.282 6.1 176 8.6 100010 74
2005-04-07 07:43:22 51°16.233 2°56.31 8.9 164 8.6 100010 74
2005-04-07 07:43:26 51°16.241 2°56.329 8.3 165 8.6 100010 73
2005-04-07 07:43:31 51°16.252 2°56.355 6 176 8.6 100010 73
2005-04-07 07:43:36 51°16.261 2°56.379 6.5 172 8.6 100010 74
2005-04-07 07:43:42 51°16.271 2°56.406 8.8 162 8.6 100010 74
2005-04-07 07:43:46 51°16.278 2°56.425 5.7 168 8.6 100000 74
2005-04-07 07:43:51 51°16.289 2°56.451 8.9 201 8.6 100000 74
2005-04-07 07:43:56 51°16.297 2°56.472 10 181 8.6 100000 74
2005-04-07 07:44:01 51°16.308 2°56.498 5.4 177 8.6 100000 74
2005-04-07 07:44:06 51°16.318 2°56.522 8.9 177 8.6 100000 74
2005-04-07 07:44:12 51°16.329 2°56.547 11.8 172 8.6 100000 74
2005-04-07 07:44:16 51°16.335 2°56.566 7.5 163 8.6 100000 74
2005-04-07 07:44:22 51°16.346 2°56.595 9.3 150 8.6 100000 74
2005-04-07 07:44:26 51°16.354 2°56.616 8.9 171 8.7 100010 75
2005-04-07 07:44:31 51°16.363 2°56.639 6.9 176 8.7 100010 75
2005-04-07 07:44:36 51°16.371 2°56.665 9.1 175 8.8 100010 74
2005-04-07 07:44:41 51°16.379 2°56.686 6.4 179 8.8 100010 74
2005-04-07 07:44:46 51°16.387 2°56.71 9.9 172 8.7 100010 73
2005-04-07 07:44:51 51°16.397 2°56.737 8.4 179 8.7 100010 73
2005-04-07 07:44:56 51°16.406 2°56.759 6.5 189 8.7 100000 73
2005-04-07 07:44:59 51°16.412 2°56.776 6.2 180 8.7 100000 73
2005-04-07 07:45:06 51°16.425 2°56.81 9.6 165 8.7 100010 73
2005-04-07 07:45:10 51°16.432 2°56.829 8.8 171 8.7 100010 73
2005-04-07 07:45:15 51°16.442 2°56.854 8.8 164 8.7 100010 73
2005-04-07 07:45:22 51°16.452 2°56.888 7.8 169 8.7 100010 73
2005-04-07 07:45:26 51°16.459 2°56.908 8 159 8.8 100010 73
2005-04-07 07:45:32 51°16.469 2°56.937 9.8 168 8.8 100010 73
2005-04-07 07:45:36 51°16.476 2°56.96 8.1 158 8.8 100010 72
2005-04-07 07:45:42 51°16.487 2°56.987 7.5 170 8.8 100010 72
2005-04-07 07:45:46 51°16.495 2°57.008 6.9 164 8.8 100010 72
2005-04-07 07:45:50 51°16.504 2°57.03 8.8 168 8.8 100010 72
2005-04-07 07:45:55 51°16.513 2°57.054 8.7 161 8.8 100000 72
2005-04-07 07:46:02 51°16.524 2°57.086 9.9 168 8.8 100000 72
2005-04-07 07:46:06 51°16.531 2°57.11 9.1 178 8.8 100000 72
2005-04-07 07:46:11 51°16.54 2°57.134 7.2 166 8.8 100000 72
2005-04-07 07:46:16 51°16.55 2°57.159 9.5 166 8.7 100000 72
2005-04-07 07:46:22 51°16.559 2°57.188 9.5 148 8.7 100000 72
2005-04-07 07:46:26 51°16.564 2°57.209 8.4 165 8.7 100010 72
2005-04-07 07:46:31 51°16.574 2°57.237 8.8 166 8.7 100010 72
2005-04-07 07:46:36 51°16.583 2°57.26 7 169 8.7 100000 73
2005-04-07 07:46:42 51°16.594 2°57.291 8.8 170 8.7 100000 73
2005-04-07 07:46:46 51°16.602 2°57.313 6.7 174 8.6 100000 72
2005-04-07 07:46:50 51°16.609 2°57.334 7.7 167 8.6 100000 72
2005-04-07 07:46:56 51°16.618 2°57.362 9.7 163 8.6 100010 72
2005-04-07 07:46:59 51°16.622 2°57.38 9.4 174 8.6 100010 72
2005-04-07 07:47:06 51°16.632 2°57.417 9.9 164 8.6 100010 72
2005-04-07 07:47:12 51°16.642 2°57.447 5.9 154 8.6 100010 72
2005-04-07 07:47:16 51°16.65 2°57.466 7.6 163 8.6 100010 72
2005-04-07 07:47:21 51°16.659 2°57.494 6.3 169 8.6 100010 72
2005-04-07 07:47:26 51°16.67 2°57.518 6 159 8.6 100010 73
2005-04-07 07:47:31 51°16.678 2°57.542 7 175 8.6 100010 73
2005-04-07 07:47:36 51°16.686 2°57.564 4.1 181 8.6 100000 73
2005-04-07 07:47:41 51°16.697 2°57.593 4.4 203 8.6 100000 73
2005-04-07 07:47:46 51°16.707 2°57.618 5.2 166 8.6 100000 74
2005-04-07 07:47:52 51°16.715 2°57.645 8.5 173 8.6 100000 74
2005-04-07 07:47:56 51°16.724 2°57.669 8.2 171 8.6 100000 74
2005-04-07 07:48:02 51°16.734 2°57.696 8.3 176 8.6 100000 74
2005-04-07 07:48:06 51°16.74 2°57.716 8.5 169 8.6 100010 75
2005-04-07 07:48:11 51°16.749 2°57.744 5.5 178 8.6 100010 75
2005-04-07 07:48:16 51°16.758 2°57.766 5.9 180 8.5 100010 74
2005-04-07 07:48:22 51°16.769 2°57.796 4.9 184 8.5 100010 74
2005-04-07 07:48:26 51°16.777 2°57.815 4.3 182 8.5 100010 74
2005-04-07 07:48:31 51°16.786 2°57.842 5.7 179 8.5 100010 74
2005-04-07 07:48:36 51°16.794 2°57.864 3.3 195 8.5 100000 74
2005-04-07 07:48:42 51°16.805 2°57.894 3.5 189 8.5 100000 74
2005-04-07 07:48:46 51°16.814 2°57.916 3.2 188 8.5 100000 74
2005-04-07 07:48:50 51°16.82 2°57.936 4 173 8.5 100000 74
2005-04-07 07:48:55 51°16.829 2°57.96 4.3 178 8.6 100000 75
2005-04-07 07:49:02 51°16.841 2°57.992 3.8 164 8.6 100000 75
2005-04-07 07:49:06 51°16.848 2°58.012 3.1 196 8.7 100000 76
2005-04-07 07:49:12 51°16.861 2°58.04 5.2 198 8.7 100000 76
2005-04-07 07:49:16 51°16.867 2°58.06 5.7 200 8.8 100000 75
2005-04-07 07:49:20 51°16.874 2°58.079 4.9 191 8.8 100000 75
2005-04-07 07:49:27 51°16.887 2°58.114 5.2 204 8.9 100010 76
2005-04-07 07:49:31 51°16.896 2°58.136 4.8 186 8.9 100010 76
2005-04-07 07:49:36 51°16.903 2°58.157 5.1 180 9 100010 75
2005-04-07 07:49:41 51°16.912 2°58.184 5.7 177 9 100010 75
2005-04-07 07:49:46 51°16.92 2°58.206 7.1 196 9.2 100010 75
2005-04-07 07:49:50 51°16.929 2°58.229 5.5 196 9.2 100010 75
2005-04-07 07:49:56 51°16.939 2°58.258 7.1 184 9.3 100010 75
2005-04-07 07:50:01 51°16.946 2°58.282 8.5 182 9.3 100010 75
2005-04-07 07:50:06 51°16.954 2°58.308 6.2 185 9.4 100010 73
2005-04-07 07:50:12 51°16.965 2°58.336 5.7 178 9.4 100010 73
2005-04-07 07:50:16 51°16.971 2°58.356 5 193 9.4 100010 72
2005-04-07 07:50:21 51°16.98 2°58.383 6.6 184 9.4 100010 72
2005-04-07 07:50:26 51°16.987 2°58.41 7 191 9.4 100010 71
2005-04-07 07:50:31 51°16.995 2°58.435 8.3 176 9.4 100010 71
2005-04-07 07:50:36 51°17.001 2°58.458 5.9 193 9.5 100010 71
2005-04-07 07:50:40 51°17.007 2°58.479 7.1 192 9.5 100010 71
2005-04-07 07:50:46 51°17.017 2°58.51 9.3 190 9.7 100010 71
2005-04-07 07:50:52 51°17.025 2°58.541 8.3 167 9.7 100010 71
2005-04-07 07:50:57 51°17.033 2°58.568 5.9 179 9.8 100010 70
2005-04-07 07:51:02 51°17.04 2°58.594 5.9 187 9.8 100010 70
2005-04-07 07:51:06 51°17.047 2°58.618 6.7 181 9.8 100010 69
2005-04-07 07:51:11 51°17.053 2°58.646 9.3 200 9.8 100010 69
2005-04-07 07:51:16 51°17.06 2°58.671 6.9 180 9.8 100010 69
2005-04-07 07:51:20 51°17.067 2°58.691 6.2 186 9.8 100010 69
2005-04-07 07:51:26 51°17.076 2°58.725 7.6 185 9.8 100010 69
2005-04-07 07:51:32 51°17.083 2°58.754 6.6 188 9.8 100010 69
2005-04-07 07:51:36 51°17.089 2°58.775 8.9 170 9.9 100010 68
2005-04-07 07:51:42 51°17.097 2°58.808 6.8 173 9.9 100010 68
2005-04-07 07:51:46 51°17.104 2°58.832 6.1 152 10 100020 69
2005-04-07 07:51:52 51°17.112 2°58.862 7.3 173 10 100020 69
2005-04-07 07:51:56 51°17.118 2°58.883 8.4 172 10 100010 67
2005-04-07 07:52:01 51°17.126 2°58.911 9.3 174 10 100010 67
2005-04-07 07:52:06 51°17.132 2°58.935 7.5 176 9.9 100010 67
2005-04-07 07:52:12 51°17.142 2°58.969 7.4 179 9.9 100010 67
2005-04-07 07:52:16 51°17.15 2°58.993 5.7 182 9.8 100010 68
2005-04-07 07:52:22 51°17.158 2°59.02 5.4 185 9.8 100010 68
2005-04-07 07:52:26 51°17.165 2°59.043 5.4 199 9.7 100010 68
2005-04-07 07:52:31 51°17.173 2°59.07 2.8 203 9.7 100010 68
2005-04-07 07:52:36 51°17.181 2°59.093 6.1 206 9.6 100010 68
2005-04-07 07:52:41 51°17.191 2°59.121 4.7 181 9.6 100010 68
2005-04-07 07:52:46 51°17.199 2°59.146 7.3 183 9.6 100010 69
2005-04-07 07:52:50 51°17.206 2°59.166 5.4 193 9.6 100010 69
2005-04-07 07:52:55 51°17.215 2°59.192 5.7 184 9.7 100010 70
2005-04-07 07:53:02 51°17.228 2°59.224 5.8 203 9.7 100010 70
2005-04-07 07:53:07 51°17.237 2°59.25 5 191 9.7 100010 70
2005-04-07 07:53:11 51°17.244 2°59.271 3.5 193 9.7 100010 70
2005-04-07 07:53:16 51°17.253 2°59.295 4.9 169 9.8 100010 71
2005-04-07 07:53:22 51°17.261 2°59.326 5.5 185 9.8 100010 71
2005-04-07 07:53:26 51°17.269 2°59.349 4.8 187 9.8 100010 70
2005-04-07 07:53:31 51°17.279 2°59.373 4.8 169 9.8 100010 70
2005-04-07 07:53:36 51°17.286 2°59.396 5 179 9.9 100010 70
2005-04-07 07:53:41 51°17.297 2°59.423 6.8 215 9.9 100010 70
2005-04-07 07:53:46 51°17.306 2°59.445 4.1 173 9.8 100020 69
2005-04-07 07:53:51 51°17.317 2°59.471 5.4 211 9.8 100020 69
2005-04-07 07:53:56 51°17.325 2°59.492 6.1 195 9.8 100010 70
2005-04-07 07:54:00 51°17.334 2°59.511 5.7 204 9.8 100010 70
2005-04-07 07:54:06 51°17.347 2°59.541 6.4 214 9.8 100010 70
2005-04-07 07:54:12 51°17.359 2°59.567 5.6 204 9.8 100010 70
2005-04-07 07:54:16 51°17.37 2°59.589 6.5 208 9.7 100010 70
2005-04-07 07:54:21 51°17.38 2°59.612 8.6 215 9.7 100010 70
2005-04-07 07:54:26 51°17.391 2°59.634 7.7 223 9.7 100010 70
2005-04-07 07:54:31 51°17.403 2°59.657 6.4 231 9.7 100010 70
2005-04-07 07:54:36 51°17.414 2°59.676 6.4 227 9.6 100010 70
2005-04-07 07:54:41 51°17.425 2°59.701 6.5 214 9.6 100010 70
2005-04-07 07:54:46 51°17.437 2°59.724 7.2 226 9.5 100010 70
2005-04-07 07:54:51 51°17.451 2°59.745 6.3 216 9.5 100010 70
2005-04-07 07:54:56 51°17.462 2°59.763 4.5 206 9.5 100010 70
2005-04-07 07:55:02 51°17.476 2°59.787 4.3 241 9.5 100010 70
2005-04-07 07:55:06 51°17.487 2°59.805 6.6 228 9.4 100010 70
2005-04-07 07:55:10 51°17.498 2°59.824 8.9 242 9.4 100010 70
2005-04-07 07:55:16 51°17.513 2°59.85 8.9 223 9.4 100000 71
2005-04-07 07:55:22 51°17.525 2°59.873 9.6 225 9.4 100000 71
2005-04-07 07:55:26 51°17.533 2°59.89 9.9 220 9.3 100000 71
2005-04-07 07:55:31 51°17.546 2°59.915 9.8 227 9.3 100000 71
2005-04-07 07:55:36 51°17.557 2°59.936 9.5 230 9.2 100010 71
2005-04-07 07:55:42 51°17.573 2°59.962 10.2 232 9.2 100010 71
2005-04-07 07:55:46 51°17.584 2°59.976 9.2 213 9.2 100010 70
2005-04-07 07:55:51 51°17.594 2°59.999 12.2 217 9.2 100010 70
2005-04-07 07:55:56 51°17.606 3°0.022 13.4 217 9.1 100010 70
2005-04-07 07:56:02 51°17.62 3°0.045 10.5 225 9.1 100010 70
2005-04-07 07:56:06 51°17.63 3°0.062 12.4 227 9.1 100010 70
2005-04-07 07:56:11 51°17.644 3°0.085 11.5 226 9.1 100010 70
2005-04-07 07:56:15 51°17.655 3°0.102 10.5 223 9 100010 70
2005-04-07 07:56:22 51°17.67 3°0.129 9.8 217 9 100010 70
2005-04-07 07:56:26 51°17.678 3°0.148 9.8 220 9 100020 69
2005-04-07 07:56:32 51°17.693 3°0.174 9.3 234 9 100020 69
2005-04-07 07:56:36 51°17.701 3°0.191 6.5 221 8.9 100010 69
2005-04-07 07:56:42 51°17.714 3°0.22 8.5 222 8.9 100010 69
2005-04-07 07:56:46 51°17.725 3°0.237 7.5 230 8.9 100010 69
2005-04-07 07:56:52 51°17.739 3°0.26 8.9 201 8.9 100010 69
2005-04-07 07:56:56 51°17.746 3°0.278 7.7 212 8.9 100000 70
2005-04-07 07:57:01 51°17.759 3°0.303 8.3 222 8.9 100000 70
2005-04-07 07:57:06 51°17.77 3°0.326 8.7 211 8.9 100020 70
2005-04-07 07:57:11 51°17.78 3°0.348 10.1 209 8.9 100020 70
2005-04-07 07:57:16 51°17.789 3°0.367 9.4 228 8.8 100000 70
2005-04-07 07:57:22 51°17.8 3°0.392 9.3 208 8.8 100000 70
2005-04-07 07:57:26 51°17.81 3°0.407 11.3 219 8.8 100010 71
2005-04-07 07:57:31 51°17.82 3°0.425 10.8 236 8.8 100010 71
2005-04-07 07:57:36 51°17.831 3°0.438 10.4 230 8.8 100020 70
2005-04-07 07:57:40 51°17.836 3°0.45 10 230 8.8 100020 70
2005-04-07 07:57:46 51°17.849 3°0.467 10.1 221 8.7 100010 71
2005-04-07 07:57:51 51°17.856 3°0.484 8.2 223 8.7 100010 71
2005-04-07 07:57:56 51°17.862 3°0.497 9.5 211 8.7 100010 71
2005-04-07 07:58:02 51°17.868 3°0.517 8.5 195 8.7 100010 71
2005-04-07 07:58:06 51°17.874 3°0.532 9.8 196 8.7 100010 72
2005-04-07 07:58:11 51°17.877 3°0.547 6.9 195 8.7 100010 72
2005-04-07 07:58:15 51°17.88 3°0.562 6.6 198 8.7 100020 72
2005-04-07 07:58:22 51°17.884 3°0.585 11 173 8.7 100020 72
2005-04-07 07:58:26 51°17.887 3°0.598 9.3 180 8.7 100010 72
2005-04-07 07:58:32 51°17.889 3°0.615 10.3 175 8.7 100010 72
2005-04-07 07:58:36 51°17.891 3°0.626 9.6 163 8.8 100010 73
2005-04-07 07:58:41 51°17.891 3°0.64 10.8 163 8.8 100010 73
2005-04-07 07:58:46 51°17.891 3°0.651 9.8 157 8.8 100010 72
2005-04-07 07:58:51 51°17.891 3°0.663 13 138 8.8 100010 72
2005-04-07 07:58:56 51°17.89 3°0.672 11.6 151 8.7 100010 72
2005-04-07 07:59:02 51°17.889 3°0.682 11.4 147 8.7 100010 72
2005-04-07 07:59:06 51°17.888 3°0.689 11.8 139 8.7 100020 72
2005-04-07 07:59:10 51°17.886 3°0.694 12.9 135 8.7 100020 72
2005-04-07 07:59:16 51°17.884 3°0.701 13.9 134 8.7 100010 73
2005-04-07 07:59:21 51°17.883 3°0.705 16.4 124 8.7 100010 73
2005-04-07 07:59:26 51°17.882 3°0.709 18.3 134 8.7 100000 73
2005-04-07 07:59:31 51°17.88 3°0.714 18.3 131 8.7 100000 73
2005-04-07 07:59:36 51°17.879 3°0.716 16.1 125 8.7 99980 73
2005-04-07 07:59:41 51°17.878 3°0.72 20.1 120 8.7 99980 73
2005-04-07 07:59:46 51°17.876 3°0.724 16 121 8.6 99980 73
2005-04-07 07:59:51 51°17.875 3°0.727 13.4 119 8.6 99980 73
2005-04-07 07:59:56 51°17.873 3°0.729 16.7 116 8.6 99960 73
2005-04-07 08:00:01 51°17.872 3°0.733 16.4 115 8.6 99960 73
2005-04-07 08:00:06 51°17.87 3°0.736 17.9 122 8.6 100010 73
2005-04-07 08:00:11 51°17.868 3°0.739 14.5 118 8.6 100010 73
2005-04-07 08:00:16 51°17.867 3°0.742 15.6 109 8.6 100000 73
2005-04-07 08:00:22 51°17.865 3°0.745 16.3 105 8.6 100000 73
2005-04-07 08:00:26 51°17.863 3°0.748 18.4 106 8.6 99990 73
2005-04-07 08:00:32 51°17.862 3°0.752 19.4 107 8.6 99990 73
2005-04-07 08:00:36 51°17.859 3°0.753 17.6 109 8.6 100000 73
2005-04-07 08:00:41 51°17.857 3°0.757 18.1 106 8.6 100000 73
2005-04-07 08:00:46 51°17.854 3°0.76 17.1 101 8.6 99980 73
2005-04-07 08:00:52 51°17.852 3°0.763 17.7 96 8.6 99980 73
2005-04-07 08:00:56 51°17.85 3°0.765 18.1 105 8.5 99980 73
2005-04-07 08:01:00 51°17.848 3°0.767 17.7 95 8.5 99980 73
2005-04-07 08:01:06 51°17.845 3°0.771 20.4 91 8.5 100000 73
2005-04-07 08:01:11 51°17.842 3°0.773 19 86 8.5 100000 73
2005-04-07 08:01:16 51°17.84 3°0.776 19.1 90 8.5 99990 73
2005-04-07 08:01:22 51°17.838 3°0.779 19.3 95 8.5 99990 73
2005-04-07 08:01:26 51°17.835 3°0.781 18.9 88 8.5 99970 73
2005-04-07 08:01:31 51°17.832 3°0.783 20.3 88 8.5 99970 73
2005-04-07 08:01:36 51°17.83 3°0.786 20.6 84 8.5 99990 73
2005-04-07 08:01:41 51°17.827 3°0.789 16.9 82 8.5 99990 73
2005-04-07 08:01:46 51°17.824 3°0.79 13 81 8.5 99980 72
2005-04-07 08:01:51 51°17.821 3°0.793 13.1 72 8.5 99980 72
2005-04-07 08:01:56 51°17.818 3°0.795 17.5 71 8.5 99990 72
2005-04-07 08:02:02 51°17.814 3°0.798 13.8 68 8.5 99990 72
2005-04-07 08:02:06 51°17.811 3°0.798 16.1 80 8.5 100010 72
2005-04-07 08:02:11 51°17.808 3°0.8 14.4 74 8.5 100010 72
2005-04-07 08:02:16 51°17.805 3°0.8 12.7 75 8.5 99950 73
2005-04-07 08:02:22 51°17.802 3°0.802 16.3 71 8.5 99950 73
2005-04-07 08:02:26 51°17.799 3°0.804 15 68 8.5 99940 73
2005-04-07 08:02:31 51°17.796 3°0.805 16.6 71 8.5 99940 73
2005-04-07 08:02:36 51°17.794 3°0.806 17 56 8.5 99930 73
2005-04-07 08:02:42 51°17.79 3°0.807 17.1 65 8.5 99930 73
2005-04-07 08:02:46 51°17.788 3°0.809 18.8 66 8.5 99930 73
2005-04-07 08:02:51 51°17.785 3°0.81 17.2 62 8.5 99930 73
2005-04-07 08:02:56 51°17.782 3°0.81 18.8 58 8.5 99920 73
2005-04-07 08:03:02 51°17.779 3°0.811 17.9 61 8.5 99920 73
2005-04-07 08:03:06 51°17.776 3°0.812 17.4 60 8.5 99920 73
2005-04-07 08:03:12 51°17.773 3°0.813 16.6 53 8.5 99920 73
2005-04-07 08:03:16 51°17.77 3°0.813 15.6 57 8.5 99930 73
2005-04-07 08:03:22 51°17.767 3°0.812 16.2 58 8.5 99930 73
2005-04-07 08:03:26 51°17.765 3°0.813 14.1 43 8.5 99940 73
2005-04-07 08:03:32 51°17.761 3°0.813 13.8 43 8.5 99940 73
2005-04-07 08:03:36 51°17.76 3°0.812 13.1 43 8.5 99930 73
2005-04-07 08:03:41 51°17.757 3°0.811 15.3 41 8.5 99930 73
2005-04-07 08:03:46 51°17.754 3°0.81 13.9 45 8.5 99940 74
2005-04-07 08:03:52 51°17.751 3°0.809 12.5 30 8.5 99940 74
2005-04-07 08:03:56 51°17.749 3°0.808 15.3 29 8.5 99950 74
2005-04-07 08:04:02 51°17.746 3°0.806 12.6 30 8.5 99950 74
2005-04-07 08:04:06 51°17.743 3°0.804 15.4 35 8.5 99960 75
2005-04-07 08:04:10 51°17.741 3°0.804 13.9 28 8.5 99960 75
2005-04-07 08:04:15 51°17.739 3°0.802 14.3 16 8.4 99960 75
2005-04-07 08:04:21 51°17.736 3°0.8 17.4 23 8.4 99960 75
2005-04-07 08:04:26 51°17.734 3°0.798 17.4 14 8.5 99960 75
2005-04-07 08:04:31 51°17.732 3°0.796 18.5 17 8.5 99960 75
2005-04-07 08:04:35 51°17.73 3°0.794 16.3 22 8.4 99940 75
2005-04-07 08:04:42 51°17.728 3°0.792 16.9 7 8.4 99940 75
2005-04-07 08:04:46 51°17.726 3°0.79 16.8 13 8.5 99960 75
2005-04-07 08:04:51 51°17.725 3°0.788 18.5 10 8.5 99960 75
2005-04-07 08:04:56 51°17.723 3°0.786 18.7 9 8.4 99940 75
2005-04-07 08:05:02 51°17.722 3°0.783 18.9 1 8.4 99940 75
2005-04-07 08:05:06 51°17.721 3°0.782 17.6 357 8.5 99950 74
2005-04-07 08:05:11 51°17.719 3°0.779 16.9 2 8.5 99950 74
2005-04-07 08:05:16 51°17.719 3°0.777 16.9 355 8.5 99950 74
2005-04-07 08:05:22 51°17.718 3°0.774 15.9 352 8.5 99950 74
2005-04-07 08:05:26 51°17.717 3°0.772 18.4 354 8.5 99960 73
2005-04-07 08:05:32 51°17.717 3°0.77 18.2 350 8.5 99960 73
2005-04-07 08:05:36 51°17.717 3°0.768 18.5 345 8.5 99920 73
2005-04-07 08:05:42 51°17.717 3°0.766 17.7 331 8.5 99920 73
2005-04-07 08:05:46 51°17.718 3°0.764 20 327 8.5 99900 73
2005-04-07 08:05:51 51°17.719 3°0.762 19.1 322 8.5 99900 73
2005-04-07 08:05:56 51°17.72 3°0.76 19.7 229 8.5 99920 73
2005-04-07 08:06:02 51°17.722 3°0.757 18.9 310 8.5 99920 73
2005-04-07 08:06:06 51°17.723 3°0.756 19 307 8.5 99910 73
2005-04-07 08:06:12 51°17.725 3°0.755 19.9 300 8.5 99910 73
2005-04-07 08:06:16 51°17.727 3°0.755 19.5 288 8.5 99910 73
2005-04-07 08:06:22 51°17.729 3°0.754 17.8 290 8.5 99910 73
2005-04-07 08:06:26 51°17.731 3°0.754 15.9 279 8.5 99960 72
2005-04-07 08:06:32 51°17.734 3°0.753 19.8 279 8.5 99960 72
2005-04-07 08:06:36 51°17.736 3°0.753 17.7 284 8.6 99920 72
2005-04-07 08:06:42 51°17.74 3°0.752 22.2 272 8.6 99920 72
2005-04-07 08:06:46 51°17.742 3°0.751 21.4 276 8.6 99920 72
2005-04-07 08:06:51 51°17.745 3°0.752 22.9 275 8.6 99920 72
2005-04-07 08:06:56 51°17.747 3°0.752 19.6 271 8.6 99940 72
2005-04-07 08:07:02 51°17.749 3°0.752 22.6 274 8.6 99940 72
2005-04-07 08:07:06 51°17.751 3°0.752 19.1 275 8.6 99940 72
2005-04-07 08:07:11 51°17.753 3°0.752 17.4 276 8.6 99940 72
2005-04-07 08:07:15 51°17.755 3°0.752 20.6 272 8.6 99950 72
2005-04-07 08:07:22 51°17.757 3°0.752 22.7 275 8.6 99950 72
2005-04-07 08:07:26 51°17.759 3°0.753 20.3 272 8.6 99940 72
2005-04-07 08:07:31 51°17.76 3°0.754 20.4 282 8.6 99940 72
2005-04-07 08:07:36 51°17.762 3°0.754 16.9 281 8.6 99940 73
2005-04-07 08:07:42 51°17.763 3°0.755 17.6 282 8.6 99940 73
2005-04-07 08:07:46 51°17.765 3°0.756 17.5 281 8.6 99950 72
2005-04-07 08:07:51 51°17.766 3°0.757 20.9 274 8.6 99950 72
2005-04-07 08:07:56 51°17.768 3°0.758 19.1 278 8.6 99940 72
2005-04-07 08:08:02 51°17.769 3°0.759 20.4 277 8.6 99940 72
2005-04-07 08:08:06 51°17.771 3°0.76 21.3 269 8.6 99920 72
2005-04-07 08:08:11 51°17.772 3°0.761 18.9 268 8.6 99920 72
2005-04-07 08:08:16 51°17.773 3°0.762 18 269 8.6 99940 72
2005-04-07 08:08:20 51°17.774 3°0.763 16.8 261 8.6 99940 72
2005-04-07 08:08:26 51°17.776 3°0.765 15.9 270 8.6 99940 72
2005-04-07 08:08:32 51°17.777 3°0.766 19.1 269 8.6 99940 72
2005-04-07 08:08:35 51°17.778 3°0.767 17.1 271 8.4 99950 72
2005-04-07 08:08:41 51°17.779 3°0.768 15.7 265 8.4 99950 72
2005-04-07 08:08:46 51°17.78 3°0.769 16.3 271 8.6 99950 72
2005-04-07 08:08:51 51°17.781 3°0.77 16.3 273 8.6 99950 72
2005-04-07 08:08:56 51°17.782 3°0.771 14.3 269 8.6 99950 72
2005-04-07 08:09:02 51°17.784 3°0.773 19.7 276 8.6 99950 72
2005-04-07 08:09:06 51°17.785 3°0.774 17.9 275 8.6 99960 72
2005-04-07 08:09:11 51°17.786 3°0.775 14.8 268 8.6 99960 72
2005-04-07 08:09:16 51°17.787 3°0.777 17.6 279 8.6 99960 72
2005-04-07 08:09:22 51°17.788 3°0.778 18.5 269 8.6 99960 72
2005-04-07 08:09:26 51°17.789 3°0.78 19.6 276 8.5 99960 72
2005-04-07 08:09:31 51°17.79 3°0.781 19.6 276 8.5 99960 72
2005-04-07 08:09:36 51°17.79 3°0.783 18.9 277 8.6 99960 73
2005-04-07 08:09:42 51°17.792 3°0.785 13.6 264 8.6 99960 73
2005-04-07 08:09:46 51°17.793 3°0.786 23 273 8.6 99950 73
2005-04-07 08:09:51 51°17.794 3°0.788 17.4 271 8.6 99950 73
2005-04-07 08:09:56 51°17.794 3°0.789 23 270 8.6 99960 73
2005-04-07 08:10:02 51°17.796 3°0.792 16 260 8.6 99960 73
2005-04-07 08:10:06 51°17.796 3°0.793 15.4 265 8.6 99940 72
2005-04-07 08:10:11 51°17.797 3°0.794 16.8 269 8.6 99940 72
2005-04-07 08:10:16 51°17.798 3°0.796 15.1 272 8.6 99950 72
2005-04-07 08:10:22 51°17.799 3°0.799 17.8 283 8.6 99950 72
2005-04-07 08:10:26 51°17.799 3°0.8 17.8 275 8.5 99950 72
2005-04-07 08:10:32 51°17.8 3°0.802 17.5 277 8.5 99950 72
2005-04-07 08:10:36 51°17.801 3°0.803 18.2 273 8.6 99950 73
2005-04-07 08:10:42 51°17.802 3°0.805 16.9 278 8.6 99950 73
2005-04-07 08:10:46 51°17.802 3°0.807 15.7 276 8.6 99960 73
2005-04-07 08:10:52 51°17.803 3°0.809 16.2 274 8.6 99960 73
2005-04-07 08:10:56 51°17.803 3°0.811 14.1 266 8.6 99960 73
2005-04-07 08:11:02 51°17.804 3°0.813 16.1 276 8.6 99960 73
2005-04-07 08:11:06 51°17.805 3°0.815 16.2 265 8.6 99960 73
2005-04-07 08:11:12 51°17.805 3°0.817 20.1 276 8.6 99960 73
2005-04-07 08:11:16 51°17.806 3°0.818 21.9 267 8.6 99970 74
2005-04-07 08:11:21 51°17.807 3°0.821 22.5 271 8.6 99970 74
2005-04-07 08:11:26 51°17.808 3°0.823 19.5 270 8.6 99980 74
2005-04-07 08:11:32 51°17.808 3°0.825 17.3 265 8.6 99980 74
2005-04-07 08:11:36 51°17.809 3°0.827 20 276 8.5 99960 74
2005-04-07 08:11:42 51°17.81 3°0.831 18.5 271 8.5 99960 74
2005-04-07 08:11:46 51°17.811 3°0.835 15.6 270 8.5 99970 73
2005-04-07 08:11:51 51°17.811 3°0.835 16.3 263 8.5 99970 73
2005-04-07 08:11:55 51°17.811 3°0.839 16.3 269 8.5 99970 73
2005-04-07 08:12:01 51°17.812 3°0.84 21.8 265 8.5 99970 73
2005-04-07 08:12:06 51°17.813 3°0.844 17.4 267 8.5 99990 73
2005-04-07 08:12:11 51°17.813 3°0.846 16 272 8.5 99990 73
2005-04-07 08:12:16 51°17.813 3°0.848 14.3 260 8.5 99950 73
2005-04-07 08:12:22 51°17.814 3°0.851 21.2 265 8.5 99950 73
2005-04-07 08:12:26 51°17.815 3°0.853 17.4 276 8.6 99970 73
2005-04-07 08:12:32 51°17.815 3°0.855 17.3 260 8.6 99970 73
2005-04-07 08:12:36 51°17.816 3°0.858 19.4 265 8.5 99970 73
2005-04-07 08:12:42 51°17.816 3°0.861 12.7 256 8.5 99970 73
2005-04-07 08:12:46 51°17.816 3°0.863 13.7 266 8.5 99960 73
2005-04-07 08:12:51 51°17.817 3°0.864 14.8 260 8.5 99960 73
2005-04-07 08:12:56 51°17.818 3°0.868 18.2 267 8.5 99960 73
2005-04-07 08:13:02 51°17.818 3°0.87 14.4 264 8.5 99960 73
2005-04-07 08:13:06 51°17.818 3°0.872 18 264 8.6 99980 73
2005-04-07 08:13:12 51°17.819 3°0.875 22 262 8.6 99980 73
2005-04-07 08:13:16 51°17.819 3°0.876 18.3 270 8.5 99970 73
2005-04-07 08:13:22 51°17.819 3°0.879 20 270 8.5 99970 73
2005-04-07 08:13:26 51°17.82 3°0.882 18.8 263 8.6 99970 73
2005-04-07 08:13:31 51°17.82 3°0.884 14 265 8.6 99970 73
2005-04-07 08:13:36 51°17.82 3°0.887 19.6 265 8.6 99950 73
2005-04-07 08:13:42 51°17.821 3°0.89 12.3 259 8.6 99950 73
2005-04-07 08:13:46 51°17.821 3°0.891 14.6 262 8.6 99960 73
2005-04-07 08:13:51 51°17.821 3°0.896 14.1 262 8.6 99960 73
2005-04-07 08:13:56 51°17.821 3°0.9 12.4 251 8.6 99960 73
2005-04-07 08:14:02 51°17.822 3°0.902 10.9 258 8.6 99960 73
2005-04-07 08:14:06 51°17.822 3°0.904 10.5 259 8.5 99960 73
2005-04-07 08:14:12 51°17.822 3°0.906 10.1 255 8.5 99960 73
2005-04-07 08:14:16 51°17.822 3°0.909 10.7 252 8.5 99970 72
2005-04-07 08:14:22 51°17.822 3°0.911 8.9 258 8.5 99970 72
2005-04-07 08:14:26 51°17.822 3°0.912 11 259 8.6 99950 73
2005-04-07 08:14:31 51°17.822 3°0.915 8.5 259 8.6 99950 73
2005-04-07 08:14:36 51°17.822 3°0.917 10.5 251 8.6 99970 73
2005-04-07 08:14:41 51°17.823 3°0.919 8.4 249 8.6 99970 73
2005-04-07 08:14:46 51°17.823 3°0.922 10.2 259 8.5 99970 74
2005-04-07 08:14:52 51°17.823 3°0.925 12.6 253 8.5 99970 74
2005-04-07 08:14:56 51°17.824 3°0.926 11.4 258 8.5 99980 74
2005-04-07 08:15:02 51°17.824 3°0.929 11.8 256 8.5 99980 74
2005-04-07 08:15:06 51°17.825 3°0.932 10.5 259 8.5 99980 75
2005-04-07 08:15:12 51°17.825 3°0.935 9.9 265 8.5 99980 75
2005-04-07 08:15:16 51°17.825 3°0.935 10.1 257 8.5 99970 74
2005-04-07 08:15:21 51°17.826 3°0.939 15.7 259 8.5 99970 74
2005-04-07 08:15:26 51°17.826 3°0.941 4.4 258 8.5 99980 74
2005-04-07 08:15:32 51°17.826 3°0.944 10.1 259 8.5 99980 74
2005-04-07 08:15:36 51°17.826 3°0.945 11.9 255 8.5 99970 74
2005-04-07 08:15:41 51°17.827 3°0.948 13.1 261 8.5 99970 74
2005-04-07 08:15:46 51°17.828 3°0.951 13.3 261 8.5 99980 74
2005-04-07 08:15:50 51°17.828 3°0.953 15 267 8.5 99980 74
2005-04-07 08:15:57 51°17.828 3°0.956 9.9 263 8.5 99960 74
2005-04-07 08:16:01 51°17.829 3°0.959 15.3 268 8.5 99960 74
2005-04-07 08:16:06 51°17.829 3°0.961 15.8 267 8.5 99960 73
2005-04-07 08:16:11 51°17.829 3°0.963 11.2 255 8.5 99960 73
2005-04-07 08:16:16 51°17.83 3°0.965 11.1 256 8.5 99970 74
2005-04-07 08:16:21 51°17.83 3°0.968 12.2 258 8.5 99970 74
2005-04-07 08:16:27 51°17.831 3°0.971 10.3 263 8.5 99990 74
2005-04-07 08:16:31 51°17.831 3°0.972 11.1 261 8.5 99990 74
2005-04-07 08:16:35 51°17.831 3°0.974 20.1 266 8.5 99970 74
2005-04-07 08:16:42 51°17.832 3°0.977 15.7 263 8.5 99970 74
2005-04-07 08:16:46 51°17.832 3°0.979 8.4 260 8.5 99970 74
2005-04-07 08:16:52 51°17.832 3°0.982 11.5 250 8.5 99970 74
2005-04-07 08:16:56 51°17.833 3°0.983 11.9 257 8.5 99980 74
2005-04-07 08:17:00 51°17.833 3°0.985 11.4 257 8.5 99980 74
2005-04-07 08:17:06 51°17.833 3°0.988 14.2 246 8.5 99960 74
2005-04-07 08:17:12 51°17.834 3°0.991 9.9 259 8.5 99960 74
2005-04-07 08:17:16 51°17.834 3°0.993 10.7 253 8.6 99970 73
2005-04-07 08:17:21 51°17.835 3°0.995 9.7 258 8.6 99970 73
2005-04-07 08:17:26 51°17.835 3°0.997 12.1 253 8.6 99970 73
2005-04-07 08:17:32 51°17.836 3°1 10.3 257 8.6 99970 73
2005-04-07 08:17:36 51°17.836 3°1.002 12.6 257 8.6 99970 74
2005-04-07 08:17:42 51°17.836 3°1.004 10.3 258 8.6 99970 74
2005-04-07 08:17:46 51°17.837 3°1.006 14.6 252 8.6 99970 74
2005-04-07 08:17:50 51°17.837 3°1.008 10.6 259 8.6 99970 74
2005-04-07 08:17:57 51°17.838 3°1.01 11.7 260 8.6 99970 74
2005-04-07 08:18:01 51°17.839 3°1.013 9.2 257 8.6 99970 74
2005-04-07 08:18:06 51°17.839 3°1.016 13.5 265 8.6 99970 73
2005-04-07 08:18:11 51°17.84 3°1.017 10 263 8.6 99970 73
2005-04-07 08:18:17 51°17.84 3°1.02 14.2 270 8.6 99960 73
2005-04-07 08:18:22 51°17.841 3°1.023 10.5 258 8.6 99960 73
2005-04-07 08:18:26 51°17.841 3°1.023 8.6 257 8.6 99980 73
2005-04-07 08:18:32 51°17.842 3°1.025 12.1 255 8.6 99980 73
2005-04-07 08:18:36 51°17.843 3°1.029 11 259 8.7 99980 73
2005-04-07 08:18:42 51°17.843 3°1.031 11.4 260 8.7 99980 73
2005-04-07 08:18:46 51°17.844 3°1.033 12.3 256 8.7 99970 74
2005-04-07 08:18:51 51°17.844 3°1.035 10.7 257 8.7 99970 74
2005-04-07 08:18:57 51°17.845 3°1.037 15.9 262 8.7 99970 73
2005-04-07 08:19:02 51°17.845 3°1.039 17.4 264 8.7 99970 73
2005-04-07 08:19:07 51°17.846 3°1.042 16.2 262 8.7 99970 73
2005-04-07 08:19:12 51°17.847 3°1.044 15.4 264 8.7 99970 73
2005-04-07 08:19:17 51°17.847 3°1.046 15.6 263 8.7 99970 72
2005-04-07 08:19:22 51°17.848 3°1.049 10.8 260 8.7 99970 72
2005-04-07 08:19:26 51°17.848 3°1.05 13.6 263 8.7 99960 72
2005-04-07 08:19:32 51°17.849 3°1.053 16.4 266 8.7 99960 72
2005-04-07 08:19:36 51°17.85 3°1.054 14.6 262 8.7 99980 72
2005-04-07 08:19:41 51°17.85 3°1.057 15.3 266 8.7 99980 72
2005-04-07 08:19:46 51°17.851 3°1.06 10.1 257 8.7 99970 72
2005-04-07 08:19:52 51°17.851 3°1.062 14.4 265 8.7 99970 72
2005-04-07 08:19:56 51°17.852 3°1.064 8.4 261 8.7 99970 72
2005-04-07 08:20:01 51°17.852 3°1.066 9.7 258 8.7 99970 72
2005-04-07 08:20:06 51°17.853 3°1.068 8.7 259 8.8 99960 72
2005-04-07 08:20:12 51°17.853 3°1.07 15.4 264 8.8 99960 72
2005-04-07 08:20:16 51°17.854 3°1.071 9.2 260 8.8 99970 72
2005-04-07 08:20:22 51°17.854 3°1.073 10.3 252 8.8 99970 72
2005-04-07 08:20:26 51°17.855 3°1.076 11.9 262 8.8 99980 73
2005-04-07 08:20:32 51°17.855 3°1.078 14.5 266 8.8 99980 73
2005-04-07 08:20:36 51°17.856 3°1.08 11.9 240 8.8 99980 73
2005-04-07 08:20:42 51°17.857 3°1.082 12.8 266 8.8 99980 73
2005-04-07 08:20:46 51°17.857 3°1.084 10.7 262 8.8 99970 73
2005-04-07 08:20:50 51°17.857 3°1.085 12.9 262 8.8 99970 73
2005-04-07 08:20:55 51°17.858 3°1.088 14.8 263 8.8 99980 74
2005-04-07 08:21:01 51°17.859 3°1.09 14.4 262 8.8 99980 74
2005-04-07 08:21:06 51°17.859 3°1.091 14.1 263 8.8 99980 73
2005-04-07 08:21:11 51°17.86 3°1.095 13.7 257 8.8 99980 73
2005-04-07 08:21:16 51°17.86 3°1.097 11.3 261 8.8 99980 73
2005-04-07 08:21:21 51°17.861 3°1.098 9.5 259 8.8 99980 73
2005-04-07 08:21:26 51°17.862 3°1.101 14.5 269 8.8 99970 73
2005-04-07 08:21:32 51°17.862 3°1.104 8.5 259 8.8 99970 73
2005-04-07 08:21:36 51°17.862 3°1.104 14.4 266 8.8 99980 73
2005-04-07 08:21:41 51°17.863 3°1.108 17.1 269 8.8 99980 73
2005-04-07 08:21:46 51°17.864 3°1.11 10.1 261 8.8 99970 73
2005-04-07 08:21:52 51°17.865 3°1.113 11.5 262 8.8 99970 73
2005-04-07 08:21:56 51°17.865 3°1.115 9.7 255 8.8 99970 73
2005-04-07 08:22:01 51°17.866 3°1.117 11.4 256 8.8 99970 73
2005-04-07 08:22:06 51°17.866 3°1.119 11.9 260 8.8 99970 73
2005-04-07 08:22:11 51°17.867 3°1.121 9.5 254 8.8 99970 73
2005-04-07 08:22:16 51°17.867 3°1.123 13.1 263 8.7 99980 73
2005-04-07 08:22:21 51°17.868 3°1.125 10.1 258 8.7 99980 73
2005-04-07 08:22:26 51°17.869 3°1.128 13.2 263 8.8 99970 73
2005-04-07 08:22:30 51°17.869 3°1.131 12.1 259 8.8 99970 73
2005-04-07 08:22:36 51°17.87 3°1.133 14.3 266 8.7 99960 72
2005-04-07 08:22:42 51°17.87 3°1.135 11.1 260 8.7 99960 72
2005-04-07 08:22:46 51°17.871 3°1.138 12.9 264 8.7 99970 72
2005-04-07 08:22:51 51°17.871 3°1.139 13.7 266 8.7 99970 72
2005-04-07 08:22:56 51°17.871 3°1.141 15.5 265 8.7 99980 72
2005-04-07 08:23:02 51°17.872 3°1.144 12.8 262 8.7 99980 72
2005-04-07 08:23:07 51°17.873 3°1.147 13.4 261 8.7 99970 72
2005-04-07 08:23:11 51°17.873 3°1.148 12.5 257 8.7 99970 72
2005-04-07 08:23:16 51°17.874 3°1.149 11.8 261 8.7 99970 72
2005-04-07 08:23:21 51°17.875 3°1.152 10.9 261 8.7 99970 72
2005-04-07 08:23:27 51°17.875 3°1.155 9.1 258 8.7 99970 72
2005-04-07 08:23:31 51°17.876 3°1.157 8.4 257 8.7 99970 72
2005-04-07 08:23:36 51°17.876 3°1.159 11.7 263 8.7 99980 72
2005-04-07 08:23:42 51°17.877 3°1.161 15.6 265 8.7 99980 72
2005-04-07 08:23:46 51°17.878 3°1.164 14.7 264 8.7 99970 73
2005-04-07 08:23:52 51°17.878 3°1.166 13.8 260 8.7 99970 73
2005-04-07 08:23:56 51°17.879 3°1.168 12.5 259 8.7 99970 73
2005-04-07 08:24:01 51°17.88 3°1.171 17.7 263 8.7 99970 73
2005-04-07 08:24:06 51°17.88 3°1.173 12.8 260 8.7 99970 73
2005-04-07 08:24:12 51°17.881 3°1.177 14.2 263 8.7 99970 73
2005-04-07 08:24:16 51°17.882 3°1.178 16.8 264 8.7 99960 72
2005-04-07 08:24:22 51°17.882 3°1.18 11.6 264 8.7 99960 72
2005-04-07 08:24:26 51°17.883 3°1.183 11.9 260 8.7 99950 71
2005-04-07 08:24:31 51°17.884 3°1.186 13.1 259 8.7 99950 71
2005-04-07 08:24:37 51°17.885 3°1.188 11.5 259 8.7 99960 72
2005-04-07 08:24:42 51°17.885 3°1.191 13.1 264 8.7 99960 72
2005-04-07 08:24:46 51°17.886 3°1.192 10.7 258 8.7 99960 71
2005-04-07 08:24:51 51°17.886 3°1.194 11.4 257 8.7 99960 71
2005-04-07 08:24:56 51°17.887 3°1.197 15.6 263 8.7 99960 71
2005-04-07 08:25:02 51°17.888 3°1.201 16.3 262 8.7 99960 71
2005-04-07 08:25:06 51°17.888 3°1.202 10.7 259 8.7 99970 71
2005-04-07 08:25:12 51°17.889 3°1.204 13.8 258 8.7 99970 71
2005-04-07 08:25:16 51°17.89 3°1.208 13.7 261 8.7 99950 71
2005-04-07 08:25:21 51°17.891 3°1.21 12.6 259 8.7 99950 71
2005-04-07 08:25:26 51°17.892 3°1.212 13.4 260 8.7 99970 71
2005-04-07 08:25:31 51°17.892 3°1.214 12.2 262 8.7 99970 71
2005-04-07 08:25:36 51°17.893 3°1.216 11.7 259 8.7 99960 70
2005-04-07 08:25:42 51°17.894 3°1.219 11.1 258 8.7 99960 70
2005-04-07 08:25:46 51°17.895 3°1.222 11.8 260 8.7 99970 70
2005-04-07 08:25:52 51°17.896 3°1.225 13.3 260 8.7 99970 70
2005-04-07 08:25:56 51°17.896 3°1.227 11.1 261 8.7 99970 70
2005-04-07 08:26:01 51°17.897 3°1.229 10.6 262 8.7 99970 70
2005-04-07 08:26:06 51°17.898 3°1.232 19.5 268 8.7 99960 71
2005-04-07 08:26:12 51°17.899 3°1.235 20.6 265 8.7 99960 71
2005-04-07 08:26:16 51°17.9 3°1.236 20.9 263 8.7 99970 70
2005-04-07 08:26:22 51°17.901 3°1.239 17 262 8.7 99970 70
2005-04-07 08:26:26 51°17.902 3°1.243 11.8 262 8.7 99960 71
2005-04-07 08:26:32 51°17.903 3°1.245 10.5 257 8.7 99960 71
2005-04-07 08:26:35 51°17.903 3°1.247 12.9 257 8.7 99970 71
2005-04-07 08:26:41 51°17.904 3°1.25 13.7 260 8.7 99970 71
2005-04-07 08:26:46 51°17.905 3°1.251 15.1 260 8.7 99950 70
2005-04-07 08:26:51 51°17.906 3°1.254 12.1 256 8.7 99950 70
2005-04-07 08:26:56 51°17.907 3°1.256 15.1 262 8.7 99950 70
2005-04-07 08:27:01 51°17.908 3°1.258 18.4 271 8.7 99950 70
2005-04-07 08:27:06 51°17.909 3°1.261 21.3 272 8.7 99970 71
2005-04-07 08:27:11 51°17.91 3°1.263 18.4 263 8.7 99970 71
2005-04-07 08:27:16 51°17.91 3°1.265 18.5 266 8.7 99970 70
2005-04-07 08:27:21 51°17.912 3°1.268 19.7 264 8.7 99970 70
2005-04-07 08:27:26 51°17.913 3°1.271 17 264 8.7 99970 70
2005-04-07 08:27:31 51°17.914 3°1.273 13.1 259 8.7 99970 70
2005-04-07 08:27:36 51°17.915 3°1.276 13.2 264 8.7 99950 70
2005-04-07 08:27:42 51°17.916 3°1.279 12.7 266 8.7 99950 70
2005-04-07 08:27:46 51°17.916 3°1.28 12.1 259 8.7 99960 70
2005-04-07 08:27:51 51°17.917 3°1.283 18.9 266 8.7 99960 70
2005-04-07 08:27:56 51°17.918 3°1.286 15.6 261 8.7 99970 70
2005-04-07 08:28:01 51°17.919 3°1.288 12.8 256 8.7 99970 70
2005-04-07 08:28:06 51°17.921 3°1.29 16.5 263 8.7 99970 71
2005-04-07 08:28:11 51°17.921 3°1.293 14.1 263 8.7 99970 71
2005-04-07 08:28:16 51°17.922 3°1.295 15.2 266 8.7 99960 70
2005-04-07 08:28:21 51°17.924 3°1.298 17.8 264 8.7 99960 70
2005-04-07 08:28:26 51°17.925 3°1.301 15.4 262 8.7 99960 70
2005-04-07 08:28:32 51°17.925 3°1.303 8.9 260 8.7 99960 70
2005-04-07 08:28:36 51°17.926 3°1.305 15.6 262 8.7 99970 70
2005-04-07 08:28:42 51°17.927 3°1.308 17.2 277 8.7 99970 70
2005-04-07 08:28:46 51°17.928 3°1.31 18.8 267 8.7 99970 70
2005-04-07 08:28:51 51°17.929 3°1.312 15.1 263 8.7 99970 70
2005-04-07 08:28:56 51°17.93 3°1.314 17.9 264 8.7 99960 70
2005-04-07 08:29:01 51°17.931 3°1.317 13.5 259 8.7 99960 70
2005-04-07 08:29:06 51°17.932 3°1.32 11.2 257 8.8 99970 70
2005-04-07 08:29:12 51°17.933 3°1.323 12.8 259 8.8 99970 70
2005-04-07 08:29:16 51°17.934 3°1.325 10.7 253 8.7 99970 70
2005-04-07 08:29:22 51°17.935 3°1.327 11.7 258 8.7 99970 70
2005-04-07 08:29:26 51°17.936 3°1.329 14.4 251 8.7 99980 70
2005-04-07 08:29:32 51°17.937 3°1.333 12 262 8.7 99980 70
2005-04-07 08:29:36 51°17.938 3°1.334 12.9 257 8.7 99960 70
2005-04-07 08:29:42 51°17.938 3°1.337 12.9 263 8.7 99960 70
2005-04-07 08:29:46 51°17.939 3°1.34 15.1 266 8.7 99960 70
2005-04-07 08:29:51 51°17.94 3°1.343 18.1 267 8.7 99960 70
2005-04-07 08:29:56 51°17.941 3°1.345 17.1 268 8.7 99970 71
2005-04-07 08:30:01 51°17.942 3°1.347 18.1 265 8.7 99970 71
2005-04-07 08:30:06 51°17.943 3°1.35 14.6 263 8.7 99970 71
2005-04-07 08:30:11 51°17.944 3°1.353 18.7 266 8.7 99970 71
2005-04-07 08:30:16 51°17.945 3°1.354 17.1 264 8.7 99970 71
2005-04-07 08:30:21 51°17.946 3°1.358 20.2 271 8.7 99970 71
2005-04-07 08:30:26 51°17.947 3°1.361 14.4 260 8.7 99970 70
2005-04-07 08:30:32 51°17.948 3°1.365 15.4 263 8.7 99970 70
2005-04-07 08:30:36 51°17.949 3°1.367 19.1 267 8.7 99980 70
2005-04-07 08:30:42 51°17.949 3°1.37 14.6 262 8.7 99980 70
2005-04-07 08:30:46 51°17.95 3°1.373 14.8 265 8.7 99950 70
2005-04-07 08:30:51 51°17.951 3°1.375 20.9 264 8.7 99950 70
2005-04-07 08:30:56 51°17.952 3°1.378 19 277 8.7 99980 70
2005-04-07 08:31:02 51°17.953 3°1.381 18.8 271 8.7 99980 70
2005-04-07 08:31:06 51°17.953 3°1.384 20.3 269 8.7 99960 70
2005-04-07 08:31:12 51°17.954 3°1.387 17 264 8.7 99960 70
2005-04-07 08:31:16 51°17.955 3°1.39 14.4 269 8.7 99980 70
2005-04-07 08:31:22 51°17.956 3°1.394 12.7 262 8.7 99980 70
2005-04-07 08:31:26 51°17.956 3°1.396 11.5 260 8.7 99980 70
2005-04-07 08:31:31 51°17.957 3°1.398 12.5 263 8.7 99980 70
2005-04-07 08:31:36 51°17.958 3°1.401 11.3 257 8.7 99960 69
2005-04-07 08:31:42 51°17.959 3°1.405 15.4 269 8.7 99960 69
2005-04-07 08:31:46 51°17.959 3°1.407 20.4 276 8.7 99960 69
2005-04-07 08:31:51 51°17.96 3°1.41 17.9 270 8.7 99960 69
2005-04-07 08:31:56 51°17.961 3°1.413 18.5 266 8.8 99970 69
2005-04-07 08:32:02 51°17.962 3°1.416 16.8 258 8.8 99970 69
2005-04-07 08:32:06 51°17.963 3°1.419 23 271 8.7 99970 70
2005-04-07 08:32:12 51°17.964 3°1.424 15.3 259 8.7 99970 70
2005-04-07 08:32:16 51°17.964 3°1.425 13.5 261 8.7 99970 70
2005-04-07 08:32:22 51°17.965 3°1.429 12.5 252 8.7 99970 70
2005-04-07 08:32:26 51°17.966 3°1.431 15.6 265 8.7 99960 69
2005-04-07 08:32:31 51°17.966 3°1.434 12.1 253 8.7 99960 69
2005-04-07 08:32:36 51°17.967 3°1.436 19.1 264 8.7 99960 69
2005-04-07 08:32:42 51°17.968 3°1.44 16.5 262 8.7 99960 69
2005-04-07 08:32:46 51°17.969 3°1.443 17.9 266 8.8 99950 70
2005-04-07 08:32:52 51°17.97 3°1.446 18.4 263 8.8 99950 70
2005-04-07 08:32:56 51°17.971 3°1.449 10.9 258 8.7 99960 70
2005-04-07 08:33:02 51°17.972 3°1.452 10.4 258 8.7 99960 70
2005-04-07 08:33:06 51°17.973 3°1.454 17.5 269 8.8 99960 70
2005-04-07 08:33:11 51°17.976 3°1.457 14.1 260 8.8 99960 70
2005-04-07 08:33:16 51°17.978 3°1.458 15.7 261 8.7 99970 70
2005-04-07 08:33:21 51°17.981 3°1.461 13.7 259 8.7 99970 70
2005-04-07 08:33:26 51°17.984 3°1.464 11.5 260 8.8 99980 70
2005-04-07 08:33:31 51°17.988 3°1.465 12.5 258 8.8 99980 70
2005-04-07 08:33:36 51°17.993 3°1.466 10.7 261 8.7 99970 70
2005-04-07 08:33:41 51°17.998 3°1.467 13.4 259 8.7 99970 70
2005-04-07 08:33:46 51°18.003 3°1.468 10.2 253 8.7 99970 69
2005-04-07 08:33:52 51°18.01 3°1.469 10 253 8.7 99970 69
2005-04-07 08:33:57 51°18.017 3°1.47 11.5 258 8.7 99970 70
2005-04-07 08:34:01 51°18.023 3°1.471 12.2 262 8.7 99970 70
2005-04-07 08:34:06 51°18.03 3°1.473 10.8 262 8.7 99980 70
2005-04-07 08:34:12 51°18.037 3°1.476 12.1 257 8.7 99980 70
2005-04-07 08:34:16 51°18.043 3°1.477 10.7 254 8.7 99960 70
2005-04-07 08:34:22 51°18.052 3°1.479 8.6 261 8.7 99960 70
2005-04-07 08:34:26 51°18.058 3°1.48 13.9 244 8.7 99970 70
2005-04-07 08:34:31 51°18.065 3°1.484 13.6 257 8.7 99970 70
2005-04-07 08:34:36 51°18.071 3°1.487 19.1 246 8.7 99970 70
2005-04-07 08:34:41 51°18.078 3°1.491 18.1 236 8.7 99970 70
2005-04-07 08:34:46 51°18.085 3°1.497 18.7 234 8.7 99970 71
2005-04-07 08:34:50 51°18.09 3°1.501 17.5 231 8.7 99970 71
2005-04-07 08:34:57 51°18.098 3°1.511 14.2 237 8.7 99970 70
2005-04-07 08:35:02 51°18.105 3°1.516 16.2 228 8.7 99970 70
2005-04-07 08:35:06 51°18.11 3°1.523 17 236 8.7 99970 69
2005-04-07 08:35:12 51°18.116 3°1.532 16.5 226 8.7 99970 69
2005-04-07 08:35:16 51°18.121 3°1.537 16.5 227 8.7 99980 69
2005-04-07 08:35:21 51°18.127 3°1.546 11.8 226 8.7 99980 69
2005-04-07 08:35:26 51°18.134 3°1.555 15.1 226 8.7 99970 70
2005-04-07 08:35:31 51°18.14 3°1.563 18.3 225 8.7 99970 70
2005-04-07 08:35:36 51°18.146 3°1.57 15.4 224 8.7 99990 70
2005-04-07 08:35:42 51°18.153 3°1.58 15.8 225 8.7 99990 70
2005-04-07 08:35:46 51°18.158 3°1.588 13.6 224 8.7 99980 70
2005-04-07 08:35:52 51°18.164 3°1.597 15 226 8.7 99980 70
2005-04-07 08:35:56 51°18.169 3°1.603 16.4 219 8.7 99980 69
2005-04-07 08:36:02 51°18.174 3°1.615 14.5 227 8.7 99980 69
2005-04-07 08:36:06 51°18.18 3°1.621 12.6 230 8.7 99990 69
2005-04-07 08:36:12 51°18.185 3°1.632 13.2 226 8.7 99990 69
2005-04-07 08:36:16 51°18.189 3°1.639 10.8 199 8.7 99990 70
2005-04-07 08:36:22 51°18.194 3°1.651 9.1 201 8.7 99990 70
2005-04-07 08:36:26 51°18.197 3°1.659 9 204 8.7 100000 70
2005-04-07 08:36:31 51°18.201 3°1.667 10.4 194 8.7 100000 70
2005-04-07 08:36:36 51°18.205 3°1.677 10.5 181 8.7 99990 70
2005-04-07 08:36:42 51°18.209 3°1.688 13.2 197 8.7 99990 70
2005-04-07 08:36:46 51°18.212 3°1.697 9.7 185 8.7 100000 71
2005-04-07 08:36:51 51°18.215 3°1.706 8.6 182 8.7 100000 71
2005-04-07 08:36:56 51°18.217 3°1.716 13.9 185 8.7 100010 71
2005-04-07 08:37:01 51°18.22 3°1.725 13.3 181 8.7 100010 71
2005-04-07 08:37:06 51°18.223 3°1.735 14.1 180 8.7 100010 70
2005-04-07 08:37:12 51°18.226 3°1.745 15.3 189 8.7 100010 70
2005-04-07 08:37:16 51°18.227 3°1.754 11.5 183 8.7 100020 70
2005-04-07 08:37:22 51°18.231 3°1.766 13.4 173 8.7 100020 70
2005-04-07 08:37:26 51°18.232 3°1.775 11.1 179 8.7 100020 69
2005-04-07 08:37:31 51°18.234 3°1.785 12.5 171 8.7 100020 69
2005-04-07 08:37:36 51°18.237 3°1.795 13.1 168 8.7 100020 69
2005-04-07 08:37:41 51°18.238 3°1.805 16.9 169 8.7 100020 69
2005-04-07 08:37:46 51°18.24 3°1.815 14.6 169 8.7 100020 69
2005-04-07 08:37:52 51°18.242 3°1.826 13.7 170 8.7 100020 69
2005-04-07 08:37:56 51°18.243 3°1.833 15.4 174 8.7 100020 69
2005-04-07 08:38:00 51°18.245 3°1.841 15.7 177 8.7 100020 69
2005-04-07 08:38:06 51°18.247 3°1.852 13.8 184 8.7 100030 68
2005-04-07 08:38:11 51°18.25 3°1.862 10.2 187 8.7 100030 68
2005-04-07 08:38:16 51°18.252 3°1.869 10.9 192 8.7 100020 68
2005-04-07 08:38:22 51°18.256 3°1.879 8.6 191 8.7 100020 68
2005-04-07 08:38:26 51°18.258 3°1.887 9.7 189 8.7 100020 68
2005-04-07 08:38:31 51°18.261 3°1.896 7.4 197 8.7 100020 68
2005-04-07 08:38:36 51°18.264 3°1.905 9.5 196 8.7 100020 69
2005-04-07 08:38:41 51°18.267 3°1.914 10.5 192 8.7 100020 69
2005-04-07 08:38:46 51°18.27 3°1.923 10.4 183 8.8 100000 69
2005-04-07 08:38:52 51°18.274 3°1.933 8.8 205 8.8 100000 69
2005-04-07 08:38:56 51°18.275 3°1.942 10.8 171 8.8 100000 68
2005-04-07 08:39:02 51°18.278 3°1.952 11.5 169 8.8 100000 68
2005-04-07 08:39:07 51°18.279 3°1.962 12.8 171 8.8 100010 68
2005-04-07 08:39:12 51°18.281 3°1.971 12.7 160 8.8 100010 68
2005-04-07 08:39:16 51°18.282 3°1.979 13.1 168 8.8 100010 69
2005-04-07 08:39:22 51°18.283 3°1.991 12.9 165 8.8 100010 69
2005-04-07 08:39:26 51°18.284 3°2 11.5 160 8.8 100030 69
2005-04-07 08:39:31 51°18.286 3°2.01 11.4 165 8.8 100030 69
2005-04-07 08:39:36 51°18.287 3°2.019 12.5 163 8.8 100030 69
2005-04-07 08:39:41 51°18.288 3°2.03 15.6 163 8.8 100030 69
2005-04-07 08:39:46 51°18.29 3°2.04 15.6 168 8.8 100030 70
2005-04-07 08:39:50 51°18.291 3°2.048 14.6 168 8.8 100030 70
2005-04-07 08:39:56 51°18.293 3°2.059 13.7 173 8.8 100030 70
2005-04-07 08:40:02 51°18.295 3°2.071 12.2 164 8.8 100030 70
2005-04-07 08:40:06 51°18.297 3°2.08 15.5 171 8.8 100030 70
2005-04-07 08:40:11 51°18.298 3°2.09 14.1 172 8.8 100030 70
2005-04-07 08:40:16 51°18.3 3°2.1 12.2 170 8.8 100030 69
2005-04-07 08:40:22 51°18.302 3°2.112 14 164 8.8 100030 69
2005-04-07 08:40:26 51°18.303 3°2.122 14.2 167 8.7 100020 69
2005-04-07 08:40:31 51°18.305 3°2.132 16 177 8.7 100020 69
2005-04-07 08:40:36 51°18.306 3°2.141 13.6 172 8.7 100030 69
2005-04-07 08:40:42 51°18.308 3°2.153 11.7 175 8.7 100030 69
2005-04-07 08:40:46 51°18.31 3°2.161 13 185 8.7 100020 69
2005-04-07 08:40:52 51°18.313 3°2.173 11 175 8.7 100020 69
2005-04-07 08:40:56 51°18.315 3°2.181 9.8 182 8.7 100020 69
2005-04-07 08:41:02 51°18.318 3°2.192 10.3 186 8.7 100020 69
2005-04-07 08:41:06 51°18.32 3°2.2 10.4 184 8.7 100030 69
2005-04-07 08:41:11 51°18.321 3°2.21 12.1 172 8.7 100030 69
2005-04-07 08:41:16 51°18.325 3°2.219 10.8 174 8.7 100020 69
2005-04-07 08:41:22 51°18.326 3°2.229 12.8 174 8.7 100020 69
2005-04-07 08:41:26 51°18.329 3°2.237 14.3 180 8.7 100020 69
2005-04-07 08:41:31 51°18.33 3°2.245 11.1 170 8.7 100020 69
2005-04-07 08:41:36 51°18.332 3°2.254 12.8 172 8.7 100040 69
2005-04-07 08:41:41 51°18.335 3°2.262 9.3 176 8.7 100040 69
2005-04-07 08:41:46 51°18.336 3°2.271 10.6 179 8.7 100020 69
2005-04-07 08:41:52 51°18.339 3°2.28 9.2 174 8.7 100020 69
2005-04-07 08:41:56 51°18.341 3°2.286 9 184 8.7 100020 70